createdAt,value
2019-02-20T05:57:56.324Z,1
2019-02-20T06:00:56.299Z,1
2019-02-20T06:05:56.254Z,9.
2019-02-20T06:06:56.226Z,9.
2019-02-20T06:07:56.230Z,9.
2019-02-20T06:08:56.218Z,9.
2019-02-20T06:09:56.296Z,10.
2019-02-20T06:10:56.186Z,10.
2019-02-20T06:11:56.187Z,9.
2019-02-20T06:12:56.163Z,9.
2019-02-20T06:13:56.151Z,10.
2019-02-20T06:14:56.141Z,10.
2019-02-20T06:15:56.624Z,10.
2019-02-20T06:16:56.129Z,10.
2019-02-20T06:17:56.104Z,10.
2019-02-20T06:18:56.102Z,10.
2019-02-20T06:19:56.083Z,11.
2019-02-20T06:20:56.075Z,10.
2019-02-20T06:21:56.072Z,10.
2019-02-20T06:22:56.058Z,10.
2019-02-20T06:23:56.035Z,10.
2019-02-20T06:24:56.034Z,10.
2019-02-20T06:25:56.036Z,10.
2019-02-20T06:26:56.013Z,10.
2019-02-20T06:27:56.002Z,10.39
2019-02-20T06:28:55.993Z,10.30
2019-02-20T06:29:55.986Z,10.19
2019-02-20T06:30:56.204Z,10.60
2019-02-20T06:31:55.987Z,9.89
2019-02-20T06:32:55.971Z,10.69
2019-02-20T06:33:56.071Z,10.50
2019-02-20T06:34:55.957Z,11.00
2019-02-20T06:35:55.916Z,10.50
2019-02-20T06:36:55.894Z,10.50
2019-02-20T06:37:58.587Z,11.39
2019-02-20T06:38:55.885Z,11.30
2019-02-20T06:39:55.894Z,11.39
2019-02-20T06:40:55.901Z,11.50
2019-02-20T06:41:55.881Z,11.10
2019-02-20T06:42:55.866Z,11.10
2019-02-20T06:43:55.821Z,11.89
2019-02-20T06:44:55.821Z,11.39
2019-02-20T06:45:55.845Z,11.19
2019-02-20T06:46:55.895Z,12.00
2019-02-20T06:47:55.797Z,12.10
2019-02-20T06:48:55.821Z,12.30
2019-02-20T06:49:55.818Z,12.19
2019-02-20T06:50:55.854Z,11.00
2019-02-20T06:51:55.872Z,12.69
2019-02-20T07:00:24.045Z,12.80
2019-02-20T07:01:24.027Z,12.50
2019-02-20T07:02:24.036Z,13.50
2019-02-20T07:03:24.008Z,14.00
2019-02-20T07:04:23.994Z,12.80
2019-02-20T07:05:23.993Z,13.00
2019-02-20T07:06:23.976Z,13.19
2019-02-20T07:07:23.971Z,13.30
2019-02-20T07:08:23.955Z,12.69
2019-02-20T07:09:23.938Z,13.89
2019-02-20T07:10:23.951Z,14.30
2019-02-20T07:11:23.923Z,13.69
2019-02-20T07:12:23.930Z,14.19
2019-02-20T07:13:23.906Z,13.80
2019-02-20T07:14:23.885Z,14.30
2019-02-20T07:15:23.878Z,14.39
2019-02-20T07:16:23.868Z,14.69
2019-02-20T07:17:23.865Z,14.89
2019-02-20T07:18:23.875Z,13.39
2019-02-20T07:19:23.838Z,15.39
2019-02-20T07:20:23.813Z,14.30
2019-02-20T07:21:23.825Z,14.00
2019-02-20T07:22:23.792Z,14.00
2019-02-20T07:23:23.778Z,14.80
2019-02-20T07:25:02.961Z,13.80
2019-02-20T07:25:58.951Z,14.10
2019-02-20T07:26:58.926Z,14.10
2019-02-20T07:27:59.323Z,15.30
2019-02-20T07:28:58.927Z,15.00
2019-02-20T07:29:58.898Z,14.60
2019-02-20T07:30:58.889Z,14.89
2019-02-20T07:31:58.889Z,15.30
2019-02-20T07:32:58.903Z,14.60
2019-02-20T07:33:58.849Z,14.30
2019-02-20T07:34:58.850Z,14.80
2019-02-20T07:35:58.836Z,15.30
2019-02-20T07:36:58.819Z,14.80
2019-02-20T07:37:58.794Z,15.89
2019-02-20T07:38:58.798Z,15.30
2019-02-20T07:39:58.797Z,14.19
2019-02-20T07:40:58.793Z,15.50
2019-02-20T07:41:58.808Z,15.10
2019-02-20T07:42:58.747Z,15.00
2019-02-20T07:43:58.733Z,14.89
2019-02-20T07:44:58.924Z,15.00
2019-02-20T07:45:58.889Z,15.39
2019-02-20T07:46:58.703Z,15.00
2019-02-20T07:47:58.702Z,16.29
2019-02-20T07:48:58.682Z,14.89
2019-02-20T07:49:58.664Z,15.69
2019-02-20T07:50:58.688Z,14.69
2019-02-20T07:51:58.642Z,14.80
2019-02-20T07:52:58.799Z,15.80
2019-02-20T07:53:58.625Z,14.80
2019-02-20T07:54:58.629Z,15.30
2019-02-20T07:55:58.613Z,14.80
2019-02-20T07:56:59.582Z,15.30
2019-02-20T07:57:58.590Z,14.89
2019-02-20T07:58:58.637Z,16.60
2019-02-20T07:59:58.556Z,15.39
2019-02-20T08:00:58.543Z,14.69
2019-02-20T08:01:58.540Z,14.69
2019-02-20T08:02:58.585Z,14.39
2019-02-20T08:03:58.521Z,14.39
2019-02-20T08:04:58.559Z,14.60
2019-02-20T08:05:58.514Z,15.39
2019-02-20T08:06:59.622Z,15.30
2019-02-20T08:07:58.509Z,14.10
2019-02-20T08:08:58.449Z,14.50
2019-02-20T08:09:58.465Z,15.10
2019-02-20T08:10:58.451Z,15.19
2019-02-20T08:11:58.442Z,14.69
2019-02-20T08:12:58.414Z,14.89
2019-02-20T08:13:58.414Z,15.80
2019-02-20T08:14:58.394Z,16.10
2019-02-20T08:15:58.830Z,15.60
2019-02-20T08:16:58.369Z,15.30
2019-02-20T08:17:58.390Z,16.89
2019-02-20T08:18:58.361Z,16.10
2019-02-20T08:19:58.354Z,16.29
2019-02-20T08:20:58.325Z,15.10
2019-02-20T08:21:58.326Z,17.29
2019-02-20T08:22:58.328Z,15.19
2019-02-20T08:23:58.299Z,15.60
2019-02-20T08:24:58.297Z,16.00
2019-02-20T08:25:59.733Z,15.30
2019-02-20T08:26:58.254Z,15.89
2019-02-20T08:27:58.306Z,16.60
2019-02-20T08:28:58.247Z,16.20
2019-02-20T08:29:58.235Z,15.89
2019-02-20T08:30:58.231Z,16.10
2019-02-20T08:31:58.315Z,16.00
2019-02-20T08:32:58.209Z,16.60
2019-02-20T08:33:58.187Z,17.29
2019-02-20T08:34:58.169Z,16.00
2019-02-20T08:35:58.169Z,16.89
2019-02-20T08:36:58.196Z,16.60
2019-02-20T08:37:58.148Z,16.70
2019-02-20T08:38:58.154Z,16.79
2019-02-20T08:39:58.175Z,16.39
2019-02-20T08:40:58.114Z,16.10
2019-02-20T08:41:58.094Z,16.89
2019-02-20T08:42:58.105Z,17.10
2019-02-20T08:43:58.087Z,16.39
2019-02-20T08:44:58.080Z,16.39
2019-02-20T08:45:58.081Z,16.20
2019-02-20T08:46:58.050Z,16.70
2019-02-20T08:47:58.029Z,16.89
2019-02-20T08:48:58.044Z,16.10
2019-02-20T08:49:58.026Z,17.10
2019-02-20T08:50:57.997Z,16.79
2019-02-20T08:51:57.997Z,16.50
2019-02-20T08:52:58.012Z,16.50
2019-02-20T08:53:57.980Z,17.10
2019-02-20T08:54:57.960Z,16.10
2019-02-20T08:55:57.944Z,15.60
2019-02-20T08:56:57.956Z,17.00
2019-02-20T08:57:57.931Z,16.50
2019-02-20T08:58:57.914Z,16.29
2019-02-20T08:59:57.898Z,16.10
2019-02-20T09:00:57.885Z,16.50
2019-02-20T09:01:57.882Z,15.60
2019-02-20T09:02:57.880Z,15.80
2019-02-20T09:03:57.950Z,16.79
2019-02-20T09:04:57.851Z,15.80
2019-02-20T09:05:57.838Z,15.00
2019-02-20T09:06:57.828Z,15.19
2019-02-20T09:07:57.833Z,15.30
2019-02-20T09:08:57.844Z,14.80
2019-02-20T09:09:57.855Z,15.39
2019-02-20T09:10:57.800Z,15.00
2019-02-20T09:11:57.791Z,14.80
2019-02-20T09:12:57.879Z,14.80
2019-02-20T09:13:57.745Z,15.10
2019-02-20T09:14:57.764Z,15.00
2019-02-20T09:15:57.734Z,14.69
2019-02-20T09:16:57.727Z,14.89
2019-02-20T09:17:57.745Z,15.00
2019-02-20T09:18:57.732Z,13.69
2019-02-20T09:19:57.698Z,14.19
2019-02-20T09:20:57.690Z,14.50
2019-02-20T09:21:57.699Z,14.69
2019-02-20T09:22:57.659Z,14.80
2019-02-20T09:23:57.686Z,15.00
2019-02-20T09:24:57.638Z,14.19
2019-02-20T09:25:57.632Z,14.50
2019-02-20T09:26:57.813Z,14.30
2019-02-20T09:27:57.596Z,13.60
2019-02-20T09:28:57.710Z,14.10
2019-02-20T09:29:57.577Z,13.89
2019-02-20T09:30:57.575Z,13.60
2019-02-20T09:31:57.561Z,13.89
2019-02-20T09:32:57.561Z,14.00
2019-02-20T09:33:57.535Z,14.19
2019-02-20T09:34:57.580Z,14.10
2019-02-20T09:35:58.334Z,13.60
2019-02-20T09:36:57.509Z,13.30
2019-02-20T09:37:57.508Z,13.60
2019-02-20T09:38:57.506Z,13.19
2019-02-20T09:39:57.503Z,14.39
2019-02-20T09:40:57.944Z,14.39
2019-02-20T09:41:57.458Z,14.60
2019-02-20T09:42:57.432Z,15.00
2019-02-20T09:43:57.429Z,13.80
2019-02-20T09:44:57.473Z,14.39
2019-02-20T09:45:57.423Z,14.00
2019-02-20T09:46:57.392Z,14.19
2019-02-20T09:47:57.392Z,13.60
2019-02-20T09:48:57.401Z,13.39
2019-02-20T09:49:57.368Z,13.60
2019-02-20T09:50:57.406Z,14.00
2019-02-20T09:51:57.329Z,13.30
2019-02-20T09:52:57.330Z,12.89
2019-02-20T09:53:57.312Z,12.60
2019-02-20T09:54:57.317Z,13.19
2019-02-20T09:55:57.316Z,13.69
2019-02-20T09:56:57.289Z,13.69
2019-02-20T09:57:57.350Z,13.50
2019-02-20T09:58:57.256Z,12.30
2019-02-20T09:59:57.254Z,12.80
2019-02-20T10:00:58.669Z,13.00
2019-02-20T10:01:57.988Z,12.10
2019-02-20T10:02:57.298Z,12.00
2019-02-20T10:03:57.217Z,11.69
2019-02-20T10:04:57.217Z,12.00
2019-02-20T10:05:57.190Z,10.60
2019-02-20T10:06:57.172Z,11.30
2019-02-20T10:07:57.224Z,9.89
2019-02-20T10:08:57.164Z,10.19
2019-02-20T10:09:57.148Z,10.50
2019-02-20T10:10:57.151Z,9.80
2019-02-20T10:11:57.121Z,10.10
2019-02-20T10:12:57.116Z,10.00
2019-02-20T10:13:57.093Z,10.10
2019-02-20T10:14:57.098Z,9.69
2019-02-20T10:15:58.926Z,9.50
2019-02-20T10:16:57.062Z,9.00
2019-02-20T10:17:57.064Z,9.60
2019-02-20T10:18:57.055Z,9.30
2019-02-20T10:19:57.036Z,9.10
2019-02-20T10:20:57.026Z,9.19
2019-02-20T10:21:57.020Z,9.50
2019-02-20T10:22:56.996Z,9.39
2019-02-20T10:23:56.994Z,9.89
2019-02-20T10:24:56.998Z,9.50
2019-02-20T10:26:00.865Z,9.50
2019-02-20T10:27:00.611Z,9.60
2019-02-20T10:27:56.968Z,9.19
2019-02-20T10:28:56.965Z,9.19
2019-02-20T10:29:56.916Z,9.80
2019-02-20T10:30:56.914Z,8.69
2019-02-20T10:31:56.916Z,8.19
2019-02-20T10:32:56.906Z,8.89
2019-02-20T10:33:56.894Z,8.39
2019-02-20T10:34:56.919Z,8.80
2019-02-20T10:35:56.858Z,8.89
2019-02-20T10:36:56.839Z,8.80
2019-02-20T10:37:56.832Z,8.60
2019-02-20T10:38:56.834Z,8.39
2019-02-20T10:39:57.188Z,8.60
2019-02-20T10:40:56.830Z,8.80
2019-02-20T10:41:56.805Z,8.69
2019-02-20T10:42:56.789Z,8.19
2019-02-20T10:43:56.785Z,8.80
2019-02-20T10:44:56.754Z,9.00
2019-02-20T10:45:56.753Z,9.19
2019-02-20T10:46:56.733Z,8.69
2019-02-20T10:47:56.746Z,8.60
2019-02-20T10:48:57.758Z,9.00
2019-02-20T10:49:56.701Z,8.60
2019-02-20T10:50:56.697Z,8.30
2019-02-20T10:51:56.682Z,8.69
2019-02-20T10:52:56.681Z,8.30
2019-02-20T10:53:56.677Z,8.19
2019-02-20T10:54:57.960Z,7.90
2019-02-20T10:55:56.658Z,7.69
2019-02-20T10:56:57.464Z,7.90
2019-02-20T10:57:56.634Z,8.39
2019-02-20T10:58:56.614Z,8.19
2019-02-20T10:59:56.608Z,8.00
2019-02-20T11:01:00.205Z,8.39
2019-02-20T11:01:56.629Z,8.00
2019-02-20T11:02:56.710Z,8.39
2019-02-20T11:03:57.147Z,8.30
2019-02-20T11:04:56.563Z,7.69
2019-02-20T11:05:56.531Z,8.19
2019-02-20T11:06:56.528Z,8.19
2019-02-20T11:07:58.449Z,8.10
2019-02-20T11:08:56.612Z,8.69
2019-02-20T11:09:56.499Z,8.39
2019-02-20T11:10:56.509Z,7.90
2019-02-20T11:11:56.466Z,8.30
2019-02-20T11:14:53.820Z,8.69
2019-02-20T11:15:53.855Z,8.39
2019-02-20T11:16:53.841Z,7.80
2019-02-20T11:17:53.792Z,8.10
2019-02-20T11:18:54.380Z,7.69
2019-02-20T11:19:53.776Z,9.00
2019-02-20T11:22:45.759Z,8.30
2019-02-20T11:23:45.719Z,8.39
2019-02-20T11:24:45.728Z,8.60
2019-02-20T11:25:45.970Z,8.69
2019-02-20T11:26:54.060Z,8.50
2019-02-20T11:28:10.915Z,7.59
2019-02-20T11:29:10.866Z,8.10
2019-02-20T11:30:10.846Z,8.00
2019-02-20T11:31:11.133Z,8.10
2019-02-20T11:32:11.027Z,7.40
2019-02-20T11:33:10.809Z,7.80
2019-02-20T11:34:10.794Z,7.69
2019-02-20T11:35:12.022Z,7.69
2019-02-20T11:36:10.799Z,7.40
2019-02-20T11:37:10.783Z,7.90
2019-02-20T11:38:10.777Z,7.40
2019-02-20T11:39:11.771Z,7.30
2019-02-20T11:40:10.750Z,7.40
2019-02-20T11:41:10.728Z,7.69
2019-02-20T11:42:10.734Z,7.30
2019-02-20T11:43:10.706Z,7.30
2019-02-20T11:44:10.687Z,6.80
2019-02-20T11:45:17.210Z,7.09
2019-02-20T11:46:35.701Z,6.90
2019-02-20T11:47:35.696Z,7.80
2019-02-20T11:48:35.683Z,7.50
2019-02-20T11:49:35.666Z,7.50
2019-02-20T11:50:35.764Z,7.59
2019-02-20T11:51:35.658Z,7.19
2019-02-20T11:52:38.349Z,7.00
2019-02-20T11:53:37.430Z,7.19
2019-02-20T11:54:35.709Z,7.19
2019-02-20T11:55:35.648Z,6.40
2019-02-20T11:56:35.595Z,6.90
2019-02-20T11:57:35.576Z,6.59
2019-02-20T11:58:35.621Z,6.69
2019-02-20T11:59:35.560Z,6.59
2019-02-20T12:00:35.566Z,6.40
2019-02-20T12:01:35.530Z,6.19
2019-02-20T12:02:37.558Z,5.50
2019-02-20T12:03:35.522Z,6.00
2019-02-20T12:04:35.500Z,5.40
2019-02-20T12:05:35.494Z,5.50
2019-02-20T12:06:35.481Z,5.80
2019-02-20T12:07:35.561Z,5.30
2019-02-20T12:08:35.549Z,5.80
2019-02-20T12:09:35.452Z,5.80
2019-02-20T12:10:36.699Z,5.80
2019-02-20T12:11:35.421Z,6.00
2019-02-20T12:12:35.438Z,5.80
2019-02-20T12:13:35.401Z,6.30
2019-02-20T12:14:36.066Z,5.80
2019-02-20T12:15:35.378Z,5.69
2019-02-20T12:16:35.368Z,5.40
2019-02-20T12:17:35.368Z,5.00
2019-02-20T12:18:35.460Z,5.19
2019-02-20T12:19:35.339Z,5.40
2019-02-20T12:20:35.336Z,5.09
2019-02-20T12:21:35.323Z,5.50
2019-02-20T12:22:35.414Z,4.69
2019-02-20T12:23:36.882Z,4.80
2019-02-20T12:24:35.393Z,4.90
2019-02-20T12:25:35.294Z,4.40
2019-02-20T12:26:35.486Z,5.40
2019-02-20T12:27:35.271Z,4.90
2019-02-20T12:28:35.300Z,5.30
2019-02-20T12:29:35.247Z,5.80
2019-02-20T12:30:35.224Z,5.59
2019-02-20T12:31:35.421Z,5.50
2019-02-20T12:32:35.204Z,5.59
2019-02-20T12:33:35.207Z,5.09
2019-02-20T12:34:35.202Z,5.19
2019-02-20T12:35:35.228Z,5.09
2019-02-20T12:36:35.153Z,4.80
2019-02-20T12:37:35.169Z,5.30
2019-02-20T12:38:37.109Z,4.59
2019-02-20T12:39:35.122Z,4.59
2019-02-20T12:40:35.238Z,4.80
2019-02-20T12:41:35.196Z,4.40
2019-02-20T12:42:35.087Z,4.59
2019-02-20T12:43:35.090Z,4.80
2019-02-20T12:44:35.072Z,4.80
2019-02-20T12:45:35.069Z,4.40
2019-02-20T12:46:35.127Z,4.50
2019-02-20T12:47:35.041Z,4.40
2019-02-20T12:48:35.029Z,4.40
2019-02-20T12:49:35.037Z,4.00
2019-02-20T12:50:35.007Z,3.90
2019-02-20T12:51:34.992Z,3.70
2019-02-20T12:52:34.976Z,3.59
2019-02-20T12:53:35.029Z,3.70
2019-02-20T12:54:34.961Z,3.90
2019-02-20T12:55:34.970Z,4.00
2019-02-20T12:56:34.957Z,4.09
2019-02-20T12:57:34.923Z,3.90
2019-02-20T12:58:34.930Z,3.90
2019-02-20T12:59:36.673Z,3.59
2019-02-20T13:00:34.895Z,4.00
2019-02-20T13:01:34.884Z,4.00
2019-02-20T13:02:36.120Z,4.09
2019-02-20T13:03:34.924Z,3.70
2019-02-20T13:04:34.890Z,4.30
2019-02-20T13:05:34.910Z,3.70
2019-02-20T13:06:35.373Z,4.00
2019-02-20T13:07:34.853Z,3.59
2019-02-20T13:08:34.811Z,4.19
2019-02-20T13:09:34.792Z,4.09
2019-02-20T13:10:38.516Z,3.90
2019-02-20T13:11:34.772Z,3.70
2019-02-20T13:12:34.776Z,4.00
2019-02-20T13:13:34.754Z,3.70
2019-02-20T13:14:34.734Z,3.79
2019-02-20T13:15:34.748Z,3.59
2019-02-20T13:16:34.731Z,4.09
2019-02-20T13:17:34.708Z,3.59
2019-02-20T13:18:34.717Z,3.70
2019-02-20T13:19:34.694Z,3.70
2019-02-20T13:20:34.738Z,3.70
2019-02-20T13:21:34.666Z,3.59
2019-02-20T13:22:34.663Z,3.50
2019-02-20T14:05:06.768Z,4.50
2019-02-20T14:10:46.814Z,5.40
2019-02-20T14:11:46.788Z,5.09
2019-02-20T14:12:47.102Z,4.80
2019-02-20T14:13:46.902Z,4.80
2019-02-20T14:14:46.782Z,4.69
2019-02-20T14:15:46.751Z,4.69
2019-02-20T14:16:46.736Z,4.90
2019-02-20T14:17:46.736Z,4.69
2019-02-20T14:18:46.718Z,4.69
2019-02-20T14:19:46.712Z,4.80
2019-02-20T14:20:46.721Z,4.69
2019-02-20T14:21:46.706Z,4.80
2019-02-20T14:22:46.695Z,4.40
2019-02-20T14:23:46.664Z,4.69
2019-02-20T14:24:46.661Z,4.50
2019-02-20T14:25:46.658Z,4.69
2019-02-20T14:26:46.639Z,4.50
2019-02-20T14:27:46.674Z,4.50
2019-02-20T14:28:46.631Z,4.30
2019-02-20T14:29:46.603Z,4.50
2019-02-20T14:30:46.614Z,4.19
2019-02-20T14:31:46.576Z,4.40
2019-02-20T14:32:46.574Z,4.50
2019-02-20T14:33:46.578Z,4.80
2019-02-20T14:34:46.559Z,5.09
2019-02-20T14:35:46.533Z,5.00
2019-02-20T14:36:46.529Z,5.09
2019-02-20T14:37:46.519Z,5.19
2019-02-20T14:38:46.526Z,5.00
2019-02-20T14:39:46.495Z,5.19
2019-02-20T14:40:46.503Z,5.69
2019-02-20T14:41:46.467Z,5.50
2019-02-20T14:42:46.477Z,5.09
2019-02-20T14:43:46.475Z,5.30
2019-02-20T14:44:46.440Z,5.40
2019-02-20T14:45:46.429Z,5.00
2019-02-20T14:46:46.419Z,5.50
2019-02-20T14:47:46.425Z,5.40
2019-02-20T14:48:47.378Z,5.30
2019-02-20T14:49:46.390Z,5.50
2019-02-20T14:50:46.386Z,5.09
2019-02-20T14:51:46.364Z,5.00
2019-02-20T14:52:46.343Z,5.40
2019-02-20T14:53:46.380Z,5.19
2019-02-20T14:54:46.326Z,5.40
2019-02-20T14:55:46.327Z,5.50
2019-02-20T14:56:46.367Z,5.50
2019-02-20T14:57:46.315Z,5.40
2019-02-20T14:58:46.403Z,5.50
2019-02-20T14:59:46.269Z,5.40
2019-02-20T15:00:46.272Z,5.30
2019-02-20T15:01:46.253Z,5.40
2019-02-20T15:02:46.241Z,6.19
2019-02-20T15:03:46.245Z,5.69
2019-02-20T15:04:46.223Z,5.40
2019-02-20T15:05:47.961Z,5.30
2019-02-20T15:06:46.189Z,5.40
2019-02-20T15:07:46.178Z,5.09
2019-02-20T15:08:46.210Z,5.50
2019-02-20T15:09:47.351Z,5.30
2019-02-20T15:10:46.161Z,5.00
2019-02-20T15:11:46.145Z,5.69
2019-02-20T15:12:46.754Z,5.40
2019-02-20T15:13:46.115Z,5.59
2019-02-20T15:14:47.609Z,5.90
2019-02-20T15:15:47.469Z,5.40
2019-02-20T15:16:46.113Z,5.19
2019-02-20T15:17:46.068Z,5.09
2019-02-20T15:18:46.067Z,5.50
2019-02-20T15:19:46.056Z,6.19
2019-02-20T15:20:46.047Z,5.69
2019-02-20T15:21:46.037Z,5.50
2019-02-20T15:22:46.046Z,5.59
2019-02-20T15:23:46.025Z,5.59
2019-02-20T15:24:46.011Z,5.40
2019-02-20T15:25:45.988Z,6.00
2019-02-20T15:26:46.110Z,5.69
2019-02-20T15:27:45.959Z,5.00
2019-02-20T15:28:45.972Z,5.90
2019-02-20T15:29:45.943Z,5.69
2019-02-20T15:30:45.931Z,6.00
2019-02-20T15:31:45.924Z,5.59
2019-02-20T15:32:45.909Z,5.59
2019-02-20T15:33:45.943Z,5.59
2019-02-20T15:34:45.887Z,5.59
2019-02-20T15:35:45.878Z,5.40
2019-02-20T15:36:45.871Z,5.69
2019-02-20T15:37:45.856Z,5.80
2019-02-20T15:38:45.842Z,6.09
2019-02-20T15:39:45.830Z,6.09
2019-02-20T15:40:45.830Z,6.19
2019-02-20T15:41:45.814Z,6.00
2019-02-20T15:42:45.823Z,5.90
2019-02-20T15:43:45.845Z,5.90
2019-02-20T15:44:45.780Z,6.00
2019-02-20T15:45:45.799Z,5.90
2019-02-20T15:46:45.799Z,6.00
2019-02-20T15:47:45.745Z,5.59
2019-02-20T15:48:45.726Z,6.00
2019-02-20T15:49:45.730Z,6.00
2019-02-20T15:50:45.715Z,5.30
2019-02-20T15:51:45.699Z,5.59
2019-02-20T15:52:45.701Z,5.90
2019-02-20T15:53:45.790Z,5.59
2019-02-20T15:54:45.719Z,6.19
2019-02-20T15:55:45.662Z,5.40
2019-02-20T15:56:45.642Z,5.80
2019-02-20T15:57:45.634Z,5.90
2019-02-20T15:58:45.663Z,5.59
2019-02-20T15:59:45.607Z,5.80
2019-02-20T16:00:45.613Z,5.50
2019-02-20T16:01:45.596Z,5.40
2019-02-20T16:02:45.584Z,5.90
2019-02-20T16:03:45.584Z,5.50
2019-02-20T16:04:45.558Z,5.69
2019-02-20T16:05:45.561Z,5.30
2019-02-20T16:06:45.538Z,5.69
2019-02-20T16:07:45.524Z,5.90
2019-02-20T16:08:45.520Z,5.59
2019-02-20T16:09:45.496Z,5.59
2019-02-20T16:10:45.617Z,5.59
2019-02-20T16:11:45.485Z,5.30
2019-02-20T16:12:45.481Z,5.59
2019-02-20T16:13:45.477Z,5.30
2019-02-20T16:14:45.476Z,5.00
2019-02-20T16:15:45.435Z,5.59
2019-02-20T16:16:45.537Z,5.80
2019-02-20T16:17:45.463Z,6.09
2019-02-20T16:18:45.416Z,4.90
2019-02-20T16:19:45.392Z,5.50
2019-02-20T16:20:45.393Z,5.40
2019-02-20T16:21:45.385Z,5.40
2019-02-20T16:22:45.378Z,5.59
2019-02-20T16:23:45.349Z,5.30
2019-02-20T16:24:45.335Z,5.59
2019-02-20T16:25:45.331Z,5.59
2019-02-20T16:26:45.426Z,5.09
2019-02-20T16:27:47.443Z,5.69
2019-02-20T16:28:45.304Z,5.80
2019-02-20T16:29:45.285Z,5.59
2019-02-20T16:30:45.282Z,5.90
2019-02-20T16:31:45.312Z,5.69
2019-02-20T16:32:45.257Z,5.50
2019-02-20T16:33:45.300Z,5.80
2019-02-20T16:34:45.231Z,5.50
2019-02-20T16:35:45.247Z,5.59
2019-02-20T16:36:45.213Z,5.90
2019-02-20T16:37:45.205Z,5.40
2019-02-20T16:38:45.205Z,5.59
2019-02-20T16:39:45.182Z,5.40
2019-02-20T16:40:45.172Z,5.69
2019-02-20T16:41:45.169Z,5.69
2019-02-20T16:42:45.216Z,5.09
2019-02-20T16:43:45.222Z,5.80
2019-02-20T16:44:45.714Z,5.50
2019-02-20T16:45:45.108Z,5.09
2019-02-20T16:46:45.139Z,5.30
2019-02-20T16:47:45.091Z,5.50
2019-02-20T16:48:45.078Z,5.50
2019-02-20T16:49:45.068Z,5.00
2019-02-20T16:50:45.076Z,5.30
2019-02-20T16:51:45.059Z,5.09
2019-02-20T16:52:45.040Z,5.00
2019-02-20T16:53:45.026Z,5.30
2019-02-20T16:54:45.043Z,5.00
2019-02-20T16:55:45.004Z,5.00
2019-02-20T16:56:44.996Z,4.80
2019-02-20T16:57:45.049Z,5.19
2019-02-20T16:58:44.985Z,5.19
2019-02-20T16:59:44.969Z,5.19
2019-02-20T17:00:44.949Z,4.80
2019-02-20T17:01:44.941Z,5.00
2019-02-20T17:02:44.931Z,4.80
2019-02-20T17:03:44.921Z,4.90
2019-02-20T17:04:44.911Z,5.50
2019-02-20T17:05:44.915Z,5.90
2019-02-20T17:06:44.894Z,5.40
2019-02-20T17:07:44.870Z,4.
2019-02-20T17:08:44.889Z,5.
2019-02-20T17:09:44.849Z,5.
2019-02-20T17:10:44.843Z,5.
2019-02-20T17:11:44.833Z,5.
2019-02-20T17:12:44.832Z,5.
2019-02-20T17:13:44.830Z,5.
2019-02-20T17:14:44.800Z,5.
2019-02-20T17:15:44.784Z,5.
2019-02-20T17:16:44.777Z,5.
2019-02-20T17:17:44.784Z,5.
2019-02-20T17:18:44.774Z,5.
2019-02-20T17:19:44.825Z,5.
2019-02-20T17:20:44.737Z,5.
2019-02-20T17:21:46.053Z,5.
2019-02-20T17:22:44.715Z,5.
2019-02-20T17:23:44.697Z,5.
2019-02-20T17:24:44.695Z,5.
2019-02-20T17:25:44.675Z,5.
2019-02-20T17:27:44.651Z,5.
2019-02-20T17:28:44.654Z,5.
2019-02-20T17:29:44.637Z,5.
2019-02-20T18:27:09.444Z,5.
2019-02-20T20:11:08.332Z,1
2019-02-20T20:12:08.306Z,1
2019-02-20T20:19:08.326Z,1
2019-02-20T20:40:07.980Z,1
2019-02-20T20:41:09.173Z,1
2019-02-20T20:43:07.976Z,1
2019-02-20T20:46:07.929Z,1
2019-02-20T20:47:07.907Z,1
2019-02-20T20:48:11.995Z,1
2019-02-20T20:52:07.861Z,1
2019-02-20T20:53:07.864Z,1
2019-02-20T20:55:07.831Z,1
2019-02-20T20:56:07.807Z,1
2019-02-20T20:57:07.801Z,1
2019-02-20T20:58:07.786Z,1
2019-02-20T20:59:17.225Z,1
2019-02-20T21:00:32.658Z,1
2019-02-20T21:01:32.645Z,1
2019-02-20T21:02:32.630Z,1
2019-02-20T21:03:32.622Z,1
2019-02-20T21:04:32.615Z,1
2019-02-20T21:05:32.596Z,1
2019-02-20T21:06:32.583Z,1
2019-02-20T21:07:32.570Z,1
2019-02-20T21:08:32.570Z,1
2019-02-20T21:09:32.549Z,1
2019-02-20T21:10:32.552Z,1
2019-02-20T21:11:32.541Z,1
2019-02-20T21:12:32.519Z,1
2019-02-20T21:13:34.773Z,1
2019-02-20T21:14:32.501Z,1
2019-02-20T21:15:32.500Z,1
2019-02-20T21:16:32.535Z,1
2019-02-20T21:17:32.462Z,1
2019-02-20T21:18:32.452Z,1
2019-02-20T21:19:32.466Z,1
2019-02-20T21:20:32.432Z,1
2019-02-20T21:21:32.434Z,1
2019-02-20T21:22:32.417Z,1
2019-02-20T21:23:32.415Z,1
2019-02-20T21:24:32.388Z,1
2019-02-20T21:25:32.383Z,1
2019-02-20T21:26:32.367Z,1
2019-02-20T21:27:32.353Z,1
2019-02-20T21:28:32.345Z,1
2019-02-20T21:29:32.348Z,1
2019-02-20T21:30:32.555Z,1
2019-02-20T21:31:32.319Z,1
2019-02-20T21:32:32.301Z,1
2019-02-20T21:33:32.285Z,1
2019-02-20T21:34:32.279Z,1
2019-02-20T21:35:32.262Z,1
2019-02-20T21:37:32.247Z,1
2019-02-20T21:38:32.237Z,1
2019-02-20T21:39:32.236Z,1
2019-02-20T21:40:32.243Z,1
2019-02-20T21:41:32.210Z,1
2019-02-20T21:42:32.190Z,1
2019-02-20T21:43:32.198Z,1
2019-02-20T21:44:32.173Z,1
2019-02-20T21:45:32.154Z,1
2019-02-20T21:46:32.161Z,1
2019-02-20T21:47:32.147Z,1
2019-02-20T21:48:32.126Z,1
2019-02-20T21:49:32.135Z,1
2019-02-20T21:50:32.104Z,1
2019-02-20T21:51:32.186Z,1
2019-02-20T21:52:32.097Z,1
2019-02-20T21:53:32.078Z,1
2019-02-20T21:54:32.090Z,1
2019-02-20T21:55:32.100Z,1
2019-02-20T21:56:32.035Z,1
2019-02-20T21:57:32.027Z,1
2019-02-20T21:58:33.152Z,1
2019-02-20T21:59:38.934Z,1
2019-02-20T22:00:56.995Z,1
2019-02-20T22:01:56.921Z,1
2019-02-20T22:02:56.911Z,1
2019-02-20T22:03:56.898Z,1
2019-02-20T22:04:56.886Z,1
2019-02-20T22:05:58.493Z,1
2019-02-20T22:07:56.855Z,1
2019-02-20T22:08:56.846Z,1
2019-02-20T22:09:58.401Z,1
2019-02-20T22:10:56.818Z,1
2019-02-20T22:11:56.807Z,1
2019-02-20T22:12:56.806Z,1
2019-02-20T22:13:56.783Z,1
2019-02-20T22:14:56.776Z,1
2019-02-20T22:15:56.782Z,1
2019-02-20T22:16:56.752Z,1
2019-02-20T22:17:56.747Z,1
2019-02-20T22:18:56.739Z,1
2019-02-20T22:19:56.799Z,1
2019-02-20T22:20:56.724Z,1
2019-02-20T22:21:56.706Z,1
2019-02-20T22:22:56.694Z,1
2019-02-20T22:23:56.673Z,1
2019-02-20T22:24:56.679Z,1
2019-02-20T22:25:56.649Z,1
2019-02-20T22:26:56.647Z,1
2019-02-20T22:27:56.631Z,1
2019-02-20T22:28:56.633Z,1
2019-02-20T22:29:56.625Z,1
2019-02-20T22:30:56.609Z,1
2019-02-20T22:31:56.593Z,1
2019-02-20T22:32:56.572Z,1
2019-02-20T22:33:56.573Z,1
2019-02-20T22:34:56.570Z,1
2019-02-20T22:35:56.546Z,1
2019-02-20T22:36:56.539Z,1
2019-02-20T22:37:56.522Z,1
2019-02-20T22:38:56.515Z,1
2019-02-20T22:39:56.543Z,1
2019-02-20T22:40:56.500Z,1
2019-02-20T22:41:56.476Z,1
2019-02-20T22:42:56.467Z,1
2019-02-20T22:43:56.458Z,1
2019-02-20T22:44:56.451Z,1
2019-02-20T22:45:56.433Z,1
2019-02-20T22:46:56.459Z,1
2019-02-20T22:47:56.428Z,1
2019-02-20T22:48:56.398Z,1
2019-02-20T22:49:56.611Z,1
2019-02-20T22:50:56.376Z,1
2019-02-20T22:51:56.399Z,1
2019-02-20T22:52:56.373Z,1
2019-02-20T22:53:56.364Z,1
2019-02-20T22:54:56.338Z,1
2019-02-20T22:55:56.326Z,1
2019-02-20T22:56:56.324Z,1
2019-02-20T22:57:56.312Z,1
2019-02-20T22:58:56.317Z,1
2019-02-20T23:00:02.031Z,1
2019-02-20T23:01:22.167Z,1
2019-02-20T23:02:22.140Z,1
2019-02-20T23:03:22.133Z,1
2019-02-20T23:04:22.125Z,1
2019-02-20T23:05:22.113Z,1
2019-02-20T23:06:22.098Z,1
2019-02-20T23:07:22.098Z,1
2019-02-20T23:08:22.105Z,1
2019-02-20T23:09:22.068Z,1
2019-02-20T23:10:22.058Z,1
2019-02-20T23:11:22.047Z,1
2019-02-20T23:12:22.033Z,1
2019-02-20T23:13:22.048Z,1
2019-02-20T23:14:22.009Z,1
2019-02-20T23:15:22.013Z,1
2019-02-20T23:16:21.991Z,1
2019-02-20T23:17:21.982Z,1
2019-02-20T23:18:21.970Z,1
2019-02-20T23:19:21.958Z,1
2019-02-20T23:20:21.960Z,1
2019-02-20T23:21:21.964Z,1
2019-02-20T23:22:21.926Z,1
2019-02-20T23:23:21.920Z,1
2019-02-20T23:24:21.925Z,1
2019-02-20T23:25:21.889Z,1
2019-02-20T23:26:21.883Z,1
2019-02-20T23:27:21.868Z,1
2019-02-20T23:28:21.862Z,1
2019-02-20T23:29:21.852Z,1
2019-02-20T23:30:21.832Z,1
2019-02-20T23:31:21.832Z,1
2019-02-20T23:32:21.829Z,1
2019-02-20T23:33:21.844Z,1
2019-02-20T23:34:21.799Z,1
2019-02-20T23:35:21.790Z,1
2019-02-20T23:36:21.776Z,1
2019-02-20T23:37:21.757Z,1
2019-02-20T23:38:21.743Z,1
2019-02-20T23:39:21.751Z,1
2019-02-20T23:40:21.723Z,1
2019-02-20T23:41:21.711Z,1
2019-02-20T23:42:21.717Z,1
2019-02-20T23:43:21.704Z,1
2019-02-20T23:44:21.688Z,1
2019-02-20T23:45:21.674Z,1
2019-02-20T23:46:22.327Z,1
2019-02-20T23:47:21.649Z,1
2019-02-20T23:48:21.651Z,1
2019-02-20T23:49:21.671Z,1
2019-02-20T23:50:21.613Z,1
2019-02-20T23:51:21.604Z,1